sensor_id;sensor_type;location;lat;lon;timestamp;temperature;humidity
51878;SHT31;37911;51.526;11.536;2023-08-08T00:02:57;13.32;77.57
51878;SHT31;37911;51.526;11.536;2023-08-08T00:06:01;13.35;77.49
51878;SHT31;37911;51.526;11.536;2023-08-08T00:09:04;13.27;77.44
51878;SHT31;37911;51.526;11.536;2023-08-08T00:12:11;13.24;77.87
51878;SHT31;37911;51.526;11.536;2023-08-08T00:15:14;13.23;77.96
51878;SHT31;37911;51.526;11.536;2023-08-08T00:18:18;13.16;77.90
51878;SHT31;37911;51.526;11.536;2023-08-08T00:21:21;13.06;78.31
51878;SHT31;37911;51.526;11.536;2023-08-08T00:24:25;12.92;78.83
51878;SHT31;37911;51.526;11.536;2023-08-08T00:27:31;12.89;79.03
51878;SHT31;37911;51.526;11.536;2023-08-08T00:30:34;12.82;79.31
51878;SHT31;37911;51.526;11.536;2023-08-08T00:33:38;12.88;79.03
51878;SHT31;37911;51.526;11.536;2023-08-08T00:36:41;12.84;78.96
51878;SHT31;37911;51.526;11.536;2023-08-08T00:39:45;12.84;78.81
51878;SHT31;37911;51.526;11.536;2023-08-08T00:42:52;12.72;79.08
51878;SHT31;37911;51.526;11.536;2023-08-08T00:45:55;12.64;79.44
51878;SHT31;37911;51.526;11.536;2023-08-08T00:48:59;12.66;79.61
51878;SHT31;37911;51.526;11.536;2023-08-08T00:52:04;12.64;78.99
51878;SHT31;37911;51.526;11.536;2023-08-08T00:55:09;12.58;79.15
51878;SHT31;37911;51.526;11.536;2023-08-08T00:58:15;12.61;79.04
51878;SHT31;37911;51.526;11.536;2023-08-08T01:01:19;12.58;79.23
51878;SHT31;37911;51.526;11.536;2023-08-08T01:04:25;12.49;79.45
51878;SHT31;37911;51.526;11.536;2023-08-08T01:07:33;12.46;79.48
51878;SHT31;37911;51.526;11.536;2023-08-08T01:10:41;12.45;79.64
51878;SHT31;37911;51.526;11.536;2023-08-08T01:13:47;12.49;79.47
51878;SHT31;37911;51.526;11.536;2023-08-08T01:16:53;12.41;79.60
51878;SHT31;37911;51.526;11.536;2023-08-08T01:20:01;12.33;80.05
51878;SHT31;37911;51.526;11.536;2023-08-08T01:23:10;12.31;80.12
51878;SHT31;37911;51.526;11.536;2023-08-08T01:26:18;12.35;79.95
51878;SHT31;37911;51.526;11.536;2023-08-08T01:29:22;12.25;80.28
51878;SHT31;37911;51.526;11.536;2023-08-08T01:32:25;12.20;80.31
51878;SHT31;37911;51.526;11.536;2023-08-08T01:35:31;12.18;80.60
51878;SHT31;37911;51.526;11.536;2023-08-08T01:38:39;12.25;80.43
51878;SHT31;37911;51.526;11.536;2023-08-08T01:41:48;12.21;80.45
51878;SHT31;37911;51.526;11.536;2023-08-08T01:44:53;12.28;80.39
51878;SHT31;37911;51.526;11.536;2023-08-08T01:47:56;12.25;80.38
51878;SHT31;37911;51.526;11.536;2023-08-08T01:51:00;12.24;80.10
51878;SHT31;37911;51.526;11.536;2023-08-08T01:54:03;12.27;80.03
51878;SHT31;37911;51.526;11.536;2023-08-08T01:57:09;12.18;80.20
51878;SHT31;37911;51.526;11.536;2023-08-08T02:00:13;12.20;80.26
51878;SHT31;37911;51.526;11.536;2023-08-08T02:03:17;12.16;80.37
51878;SHT31;37911;51.526;11.536;2023-08-08T02:06:20;12.20;80.04
51878;SHT31;37911;51.526;11.536;2023-08-08T02:09:24;12.18;80.12
51878;SHT31;37911;51.526;11.536;2023-08-08T02:12:30;12.11;80.23
51878;SHT31;37911;51.526;11.536;2023-08-08T02:15:33;12.08;80.35
51878;SHT31;37911;51.526;11.536;2023-08-08T02:18:37;12.01;80.72
51878;SHT31;37911;51.526;11.536;2023-08-08T02:21:41;12.10;80.27
51878;SHT31;37911;51.526;11.536;2023-08-08T02:24:45;12.07;80.23
51878;SHT31;37911;51.526;11.536;2023-08-08T02:27:51;11.95;80.56
51878;SHT31;37911;51.526;11.536;2023-08-08T02:30:54;11.93;80.95
51878;SHT31;37911;51.526;11.536;2023-08-08T02:33:58;11.89;81.01
51878;SHT31;37911;51.526;11.536;2023-08-08T02:37:01;12.01;80.71
51878;SHT31;37911;51.526;11.536;2023-08-08T02:40:06;12.03;80.68
51878;SHT31;37911;51.526;11.536;2023-08-08T02:43:13;12.05;80.59
51878;SHT31;37911;51.526;11.536;2023-08-08T02:46:17;12.07;80.77
51878;SHT31;37911;51.526;11.536;2023-08-08T02:49:21;12.07;80.61
51878;SHT31;37911;51.526;11.536;2023-08-08T02:52:24;12.07;80.83
51878;SHT31;37911;51.526;11.536;2023-08-08T02:55:28;12.05;80.79
51878;SHT31;37911;51.526;11.536;2023-08-08T02:58:34;12.00;81.08
51878;SHT31;37911;51.526;11.536;2023-08-08T03:01:38;12.07;80.73
51878;SHT31;37911;51.526;11.536;2023-08-08T03:04:48;11.98;81.09
51878;SHT31;37911;51.526;11.536;2023-08-08T03:07:51;12.05;81.15
51878;SHT31;37911;51.526;11.536;2023-08-08T03:10:55;12.08;80.85
51878;SHT31;37911;51.526;11.536;2023-08-08T03:14:01;12.13;80.89
51878;SHT31;37911;51.526;11.536;2023-08-08T03:17:05;12.11;80.90
51878;SHT31;37911;51.526;11.536;2023-08-08T03:20:10;12.07;80.90
51878;SHT31;37911;51.526;11.536;2023-08-08T03:23:14;12.10;81.10
51878;SHT31;37911;51.526;11.536;2023-08-08T03:26:17;12.08;81.03
51878;SHT31;37911;51.526;11.536;2023-08-08T03:29:24;12.08;81.45
51878;SHT31;37911;51.526;11.536;2023-08-08T03:32:30;12.10;81.44
51878;SHT31;37911;51.526;11.536;2023-08-08T03:35:34;12.08;81.51
51878;SHT31;37911;51.526;11.536;2023-08-08T03:38:37;11.91;82.09
51878;SHT31;37911;51.526;11.536;2023-08-08T03:41:45;11.84;82.88
51878;SHT31;37911;51.526;11.536;2023-08-08T03:44:51;11.71;83.40
51878;SHT31;37911;51.526;11.536;2023-08-08T03:47:55;11.73;83.51
51878;SHT31;37911;51.526;11.536;2023-08-08T03:50:58;11.77;83.63
51878;SHT31;37911;51.526;11.536;2023-08-08T03:54:02;11.95;83.21
51878;SHT31;37911;51.526;11.536;2023-08-08T03:57:07;11.90;83.15
51878;SHT31;37911;51.526;11.536;2023-08-08T04:00:13;12.04;82.94
51878;SHT31;37911;51.526;11.536;2023-08-08T04:03:18;12.14;82.03
51878;SHT31;37911;51.526;11.536;2023-08-08T04:06:23;12.27;81.55
51878;SHT31;37911;51.526;11.536;2023-08-08T04:09:26;12.44;80.17
51878;SHT31;37911;51.526;11.536;2023-08-08T04:12:30;12.49;79.79
51878;SHT31;37911;51.526;11.536;2023-08-08T04:15:37;12.51;79.72
51878;SHT31;37911;51.526;11.536;2023-08-08T04:18:41;12.61;79.34
51878;SHT31;37911;51.526;11.536;2023-08-08T04:21:44;12.69;79.04
51878;SHT31;37911;51.526;11.536;2023-08-08T04:24:47;12.74;78.78
51878;SHT31;37911;51.526;11.536;2023-08-08T04:27:51;12.75;78.77
51878;SHT31;37911;51.526;11.536;2023-08-08T04:30:57;12.78;78.68
51878;SHT31;37911;51.526;11.536;2023-08-08T04:34:01;12.82;78.92
51878;SHT31;37911;51.526;11.536;2023-08-08T04:37:04;12.88;78.77
51878;SHT31;37911;51.526;11.536;2023-08-08T04:40:09;12.88;78.69
51878;SHT31;37911;51.526;11.536;2023-08-08T04:43:12;12.85;78.76
51878;SHT31;37911;51.526;11.536;2023-08-08T04:46:18;12.89;78.51
51878;SHT31;37911;51.526;11.536;2023-08-08T04:49:22;12.78;79.14
51878;SHT31;37911;51.526;11.536;2023-08-08T04:52:25;12.75;79.38
51878;SHT31;37911;51.526;11.536;2023-08-08T04:55:29;12.82;79.41
51878;SHT31;37911;51.526;11.536;2023-08-08T04:58:33;12.85;79.26
51878;SHT31;37911;51.526;11.536;2023-08-08T05:01:39;12.91;79.39
51878;SHT31;37911;51.526;11.536;2023-08-08T05:04:42;12.92;79.39
51878;SHT31;37911;51.526;11.536;2023-08-08T05:07:47;12.99;79.30
51878;SHT31;37911;51.526;11.536;2023-08-08T05:10:50;13.06;79.24
51878;SHT31;37911;51.526;11.536;2023-08-08T05:13:54;13.09;79.17
51878;SHT31;37911;51.526;11.536;2023-08-08T05:17:01;13.13;79.18
51878;SHT31;37911;51.526;11.536;2023-08-08T05:20:06;13.15;79.19
51878;SHT31;37911;51.526;11.536;2023-08-08T05:23:11;13.20;79.01
51878;SHT31;37911;51.526;11.536;2023-08-08T05:26:15;13.27;78.88
51878;SHT31;37911;51.526;11.536;2023-08-08T05:29:18;13.30;79.05
51878;SHT31;37911;51.526;11.536;2023-08-08T05:32:24;13.32;78.62
51878;SHT31;37911;51.526;11.536;2023-08-08T05:35:28;13.40;78.44
51878;SHT31;37911;51.526;11.536;2023-08-08T05:38:31;13.43;78.69
51878;SHT31;37911;51.526;11.536;2023-08-08T05:41:36;13.56;78.25
51878;SHT31;37911;51.526;11.536;2023-08-08T05:44:40;13.61;77.97
51878;SHT31;37911;51.526;11.536;2023-08-08T05:47:47;13.71;77.86
51878;SHT31;37911;51.526;11.536;2023-08-08T05:50:50;13.80;77.55
51878;SHT31;37911;51.526;11.536;2023-08-08T05:53:54;13.91;77.21
51878;SHT31;37911;51.526;11.536;2023-08-08T05:56:57;13.91;77.10
51878;SHT31;37911;51.526;11.536;2023-08-08T06:00:01;14.01;76.64
51878;SHT31;37911;51.526;11.536;2023-08-08T06:03:16;14.05;76.40
51878;SHT31;37911;51.526;11.536;2023-08-08T06:06:19;14.12;76.72
51878;SHT31;37911;51.526;11.536;2023-08-08T06:09:22;14.24;76.08
51878;SHT31;37911;51.526;11.536;2023-08-08T06:12:26;14.31;75.78
51878;SHT31;37911;51.526;11.536;2023-08-08T06:15:30;14.39;75.69
51878;SHT31;37911;51.526;11.536;2023-08-08T06:18:36;14.49;75.42
51878;SHT31;37911;51.526;11.536;2023-08-08T06:21:40;14.54;75.19
51878;SHT31;37911;51.526;11.536;2023-08-08T06:24:43;14.49;75.30
51878;SHT31;37911;51.526;11.536;2023-08-08T06:27:47;14.49;75.31
51878;SHT31;37911;51.526;11.536;2023-08-08T06:30:51;14.54;75.11
51878;SHT31;37911;51.526;11.536;2023-08-08T06:33:57;14.85;75.24
51878;SHT31;37911;51.526;11.536;2023-08-08T06:37:00;14.86;74.23
51878;SHT31;37911;51.526;11.536;2023-08-08T06:40:05;14.76;74.13
51878;SHT31;37911;51.526;11.536;2023-08-08T06:43:09;14.66;74.22
51878;SHT31;37911;51.526;11.536;2023-08-08T06:46:12;14.55;74.81
51878;SHT31;37911;51.526;11.536;2023-08-08T06:49:18;14.52;75.23
51878;SHT31;37911;51.526;11.536;2023-08-08T06:52:22;14.46;76.76
51878;SHT31;37911;51.526;11.536;2023-08-08T06:55:25;14.38;77.51
51878;SHT31;37911;51.526;11.536;2023-08-08T06:58:29;14.31;77.49
51878;SHT31;37911;51.526;11.536;2023-08-08T07:01:32;14.38;76.80
51878;SHT31;37911;51.526;11.536;2023-08-08T07:04:38;14.48;76.91
51878;SHT31;37911;51.526;11.536;2023-08-08T07:07:44;14.64;76.46
51878;SHT31;37911;51.526;11.536;2023-08-08T07:10:47;14.75;75.70
51878;SHT31;37911;51.526;11.536;2023-08-08T07:13:53;14.80;75.99
51878;SHT31;37911;51.526;11.536;2023-08-08T07:16:56;14.92;75.61
51878;SHT31;37911;51.526;11.536;2023-08-08T07:20:03;14.92;75.20
51878;SHT31;37911;51.526;11.536;2023-08-08T07:23:08;14.90;75.42
51878;SHT31;37911;51.526;11.536;2023-08-08T07:26:11;14.92;74.95
51878;SHT31;37911;51.526;11.536;2023-08-08T07:29:15;14.96;74.80
51878;SHT31;37911;51.526;11.536;2023-08-08T07:32:19;14.95;74.46
51878;SHT31;37911;51.526;11.536;2023-08-08T07:35:25;15.02;74.56
51878;SHT31;37911;51.526;11.536;2023-08-08T07:38:31;14.90;74.40
51878;SHT31;37911;51.526;11.536;2023-08-08T07:41:34;14.87;74.89
51878;SHT31;37911;51.526;11.536;2023-08-08T07:44:38;14.80;75.08
51878;SHT31;37911;51.526;11.536;2023-08-08T07:47:43;14.92;75.19
51878;SHT31;37911;51.526;11.536;2023-08-08T07:50:49;15.04;74.46
51878;SHT31;37911;51.526;11.536;2023-08-08T07:53:52;15.04;74.41
51878;SHT31;37911;51.526;11.536;2023-08-08T07:56:56;15.04;75.17
51878;SHT31;37911;51.526;11.536;2023-08-08T07:59:59;15.09;74.91
51878;SHT31;37911;51.526;11.536;2023-08-08T08:03:12;15.11;75.21
51878;SHT31;37911;51.526;11.536;2023-08-08T08:06:18;15.10;75.20
51878;SHT31;37911;51.526;11.536;2023-08-08T08:09:22;15.23;75.22
51878;SHT31;37911;51.526;11.536;2023-08-08T08:12:25;15.37;74.82
51878;SHT31;37911;51.526;11.536;2023-08-08T08:15:29;15.53;74.25
51878;SHT31;37911;51.526;11.536;2023-08-08T08:18:32;15.71;73.62
51878;SHT31;37911;51.526;11.536;2023-08-08T08:21:38;15.92;73.52
51878;SHT31;37911;51.526;11.536;2023-08-08T08:24:42;16.02;73.05
51878;SHT31;37911;51.526;11.536;2023-08-08T08:27:46;15.94;72.73
51878;SHT31;37911;51.526;11.536;2023-08-08T08:30:49;16.18;72.31
51878;SHT31;37911;51.526;11.536;2023-08-08T08:33:53;16.19;72.12
51878;SHT31;37911;51.526;11.536;2023-08-08T08:36:59;16.21;72.20
51878;SHT31;37911;51.526;11.536;2023-08-08T08:40:04;16.33;71.68
51878;SHT31;37911;51.526;11.536;2023-08-08T08:43:09;16.43;71.27
51878;SHT31;37911;51.526;11.536;2023-08-08T08:46:14;16.67;70.37
51878;SHT31;37911;51.526;11.536;2023-08-08T08:49:22;17.37;68.87
51878;SHT31;37911;51.526;11.536;2023-08-08T08:52:30;18.52;66.06
51878;SHT31;37911;51.526;11.536;2023-08-08T08:55:33;18.71;64.20
51878;SHT31;37911;51.526;11.536;2023-08-08T08:58:37;18.60;64.76
51878;SHT31;37911;51.526;11.536;2023-08-08T09:01:40;19.03;62.65
51878;SHT31;37911;51.526;11.536;2023-08-08T09:04:45;19.19;62.57
51878;SHT31;37911;51.526;11.536;2023-08-08T09:07:51;19.17;62.86
51878;SHT31;37911;51.526;11.536;2023-08-08T09:10:54;19.34;62.41
51878;SHT31;37911;51.526;11.536;2023-08-08T09:13:58;19.35;61.05
51878;SHT31;37911;51.526;11.536;2023-08-08T09:17:03;19.83;59.48
51878;SHT31;37911;51.526;11.536;2023-08-08T09:20:07;20.13;59.13
51878;SHT31;37911;51.526;11.536;2023-08-08T09:23:14;20.08;59.34
51878;SHT31;37911;51.526;11.536;2023-08-08T09:26:19;19.93;60.34
51878;SHT31;37911;51.526;11.536;2023-08-08T09:29:24;19.89;60.43
51878;SHT31;37911;51.526;11.536;2023-08-08T09:32:29;20.00;60.74
51878;SHT31;37911;51.526;11.536;2023-08-08T09:35:33;19.94;59.18
51878;SHT31;37911;51.526;11.536;2023-08-08T09:38:39;19.38;60.76
51878;SHT31;37911;51.526;11.536;2023-08-08T09:41:45;19.19;62.43
51878;SHT31;37911;51.526;11.536;2023-08-08T09:44:51;19.19;62.27
51878;SHT31;37911;51.526;11.536;2023-08-08T09:47:54;19.75;60.85
51878;SHT31;37911;51.526;11.536;2023-08-08T09:50:58;20.34;59.25
51878;SHT31;37911;51.526;11.536;2023-08-08T09:54:05;20.94;58.74
51878;SHT31;37911;51.526;11.536;2023-08-08T09:57:09;21.55;55.73
51878;SHT31;37911;51.526;11.536;2023-08-08T10:00:14;21.39;55.32
51878;SHT31;37911;51.526;11.536;2023-08-08T10:03:23;21.19;55.86
51878;SHT31;37911;51.526;11.536;2023-08-08T10:06:26;20.61;56.35
51878;SHT31;37911;51.526;11.536;2023-08-08T10:09:34;20.03;58.61
51878;SHT31;37911;51.526;11.536;2023-08-08T10:12:38;20.29;59.04
51878;SHT31;37911;51.526;11.536;2023-08-08T10:15:42;20.13;57.80
51878;SHT31;37911;51.526;11.536;2023-08-08T10:18:46;19.80;59.17
51878;SHT31;37911;51.526;11.536;2023-08-08T10:21:56;20.27;58.70
51878;SHT31;37911;51.526;11.536;2023-08-08T10:25:03;20.39;58.27
51878;SHT31;37911;51.526;11.536;2023-08-08T10:28:10;20.71;57.77
51878;SHT31;37911;51.526;11.536;2023-08-08T10:31:19;20.94;55.15
51878;SHT31;37911;51.526;11.536;2023-08-08T10:34:27;21.21;55.71
51878;SHT31;37911;51.526;11.536;2023-08-08T10:37:30;21.38;56.09
51878;SHT31;37911;51.526;11.536;2023-08-08T10:40:42;21.43;53.52
51878;SHT31;37911;51.526;11.536;2023-08-08T10:43:50;20.73;55.35
51878;SHT31;37911;51.526;11.536;2023-08-08T10:46:54;20.37;56.42
51878;SHT31;37911;51.526;11.536;2023-08-08T10:50:02;20.60;57.02
51878;SHT31;37911;51.526;11.536;2023-08-08T10:53:08;21.01;56.12
51878;SHT31;37911;51.526;11.536;2023-08-08T10:56:15;21.83;55.02
51878;SHT31;37911;51.526;11.536;2023-08-08T10:59:22;22.03;53.12
51878;SHT31;37911;51.526;11.536;2023-08-08T11:02:26;22.07;53.60
51878;SHT31;37911;51.526;11.536;2023-08-08T11:05:30;21.85;53.32
51878;SHT31;37911;51.526;11.536;2023-08-08T11:08:34;21.24;51.88
51878;SHT31;37911;51.526;11.536;2023-08-08T11:11:43;20.88;53.60
51878;SHT31;37911;51.526;11.536;2023-08-08T11:14:47;20.51;57.18
51878;SHT31;37911;51.526;11.536;2023-08-08T11:17:50;20.19;60.01
51878;SHT31;37911;51.526;11.536;2023-08-08T11:20:54;19.80;63.25
51878;SHT31;37911;51.526;11.536;2023-08-08T11:23:57;19.25;62.92
51878;SHT31;37911;51.526;11.536;2023-08-08T11:27:04;18.97;66.34
51878;SHT31;37911;51.526;11.536;2023-08-08T11:30:09;18.97;65.51
51878;SHT31;37911;51.526;11.536;2023-08-08T11:33:14;19.04;66.44
51878;SHT31;37911;51.526;11.536;2023-08-08T11:36:19;19.27;63.73
51878;SHT31;37911;51.526;11.536;2023-08-08T11:39:23;19.89;61.76
51878;SHT31;37911;51.526;11.536;2023-08-08T11:42:29;20.67;62.01
51878;SHT31;37911;51.526;11.536;2023-08-08T11:45:34;20.92;59.97
51878;SHT31;37911;51.526;11.536;2023-08-08T11:48:39;21.12;59.32
51878;SHT31;37911;51.526;11.536;2023-08-08T11:51:43;21.34;60.12
51878;SHT31;37911;51.526;11.536;2023-08-08T11:54:50;21.72;55.63
51878;SHT31;37911;51.526;11.536;2023-08-08T11:57:57;22.20;53.23
51878;SHT31;37911;51.526;11.536;2023-08-08T12:01:03;22.13;51.64
51878;SHT31;37911;51.526;11.536;2023-08-08T12:04:07;22.14;51.23
51878;SHT31;37911;51.526;11.536;2023-08-08T12:07:11;22.55;52.22
51878;SHT31;37911;51.526;11.536;2023-08-08T12:10:17;22.95;50.54
51878;SHT31;37911;51.526;11.536;2023-08-08T12:13:23;22.83;51.71
51878;SHT31;37911;51.526;11.536;2023-08-08T12:16:30;22.18;51.75
51878;SHT31;37911;51.526;11.536;2023-08-08T12:19:33;21.90;53.80
51878;SHT31;37911;51.526;11.536;2023-08-08T12:22:37;21.69;53.96
51878;SHT31;37911;51.526;11.536;2023-08-08T12:25:42;21.43;53.78
51878;SHT31;37911;51.526;11.536;2023-08-08T12:28:48;21.45;52.33
51878;SHT31;37911;51.526;11.536;2023-08-08T12:31:54;21.21;51.19
51878;SHT31;37911;51.526;11.536;2023-08-08T12:34:57;20.94;51.66
51878;SHT31;37911;51.526;11.536;2023-08-08T12:38:01;20.60;52.76
51878;SHT31;37911;51.526;11.536;2023-08-08T12:41:05;20.54;53.08
51878;SHT31;37911;51.526;11.536;2023-08-08T12:44:13;20.22;53.77
51878;SHT31;37911;51.526;11.536;2023-08-08T12:47:17;20.05;54.42
51878;SHT31;37911;51.526;11.536;2023-08-08T12:50:21;19.92;55.05
51878;SHT31;37911;51.526;11.536;2023-08-08T12:53:25;19.85;55.15
51878;SHT31;37911;51.526;11.536;2023-08-08T12:56:30;19.92;54.17
51878;SHT31;37911;51.526;11.536;2023-08-08T12:59:36;19.96;54.76
51878;SHT31;37911;51.526;11.536;2023-08-08T13:02:39;20.13;54.79
51878;SHT31;37911;51.526;11.536;2023-08-08T13:05:43;20.78;54.64
51878;SHT31;37911;51.526;11.536;2023-08-08T13:08:47;21.45;53.18
51878;SHT31;37911;51.526;11.536;2023-08-08T13:11:50;21.49;53.90
51878;SHT31;37911;51.526;11.536;2023-08-08T13:14:58;21.24;53.89
51878;SHT31;37911;51.526;11.536;2023-08-08T13:18:03;20.99;54.23
51878;SHT31;37911;51.526;11.536;2023-08-08T13:21:07;20.87;55.15
51878;SHT31;37911;51.526;11.536;2023-08-08T13:24:10;20.48;57.48
51878;SHT31;37911;51.526;11.536;2023-08-08T13:27:14;19.96;58.14
51878;SHT31;37911;51.526;11.536;2023-08-08T13:30:20;19.55;59.77
51878;SHT31;37911;51.526;11.536;2023-08-08T13:33:23;19.75;59.53
51878;SHT31;37911;51.526;11.536;2023-08-08T13:36:30;19.78;58.83
51878;SHT31;37911;51.526;11.536;2023-08-08T13:39:33;19.63;59.18
51878;SHT31;37911;51.526;11.536;2023-08-08T13:42:37;19.68;59.53
51878;SHT31;37911;51.526;11.536;2023-08-08T13:45:43;19.78;58.52
51878;SHT31;37911;51.526;11.536;2023-08-08T13:48:46;20.26;56.06
51878;SHT31;37911;51.526;11.536;2023-08-08T13:51:50;20.41;55.34
51878;SHT31;37911;51.526;11.536;2023-08-08T13:54:54;20.73;53.22
51878;SHT31;37911;51.526;11.536;2023-08-08T13:57:57;20.61;54.06
51878;SHT31;37911;51.526;11.536;2023-08-08T14:01:03;20.10;54.72
51878;SHT31;37911;51.526;11.536;2023-08-08T14:04:08;20.13;55.65
51878;SHT31;37911;51.526;11.536;2023-08-08T14:07:12;20.23;55.10
51878;SHT31;37911;51.526;11.536;2023-08-08T14:10:15;20.33;56.23
51878;SHT31;37911;51.526;11.536;2023-08-08T14:13:19;20.30;54.96
51878;SHT31;37911;51.526;11.536;2023-08-08T14:16:25;20.51;55.37
51878;SHT31;37911;51.526;11.536;2023-08-08T14:19:28;20.48;54.45
51878;SHT31;37911;51.526;11.536;2023-08-08T14:22:34;20.26;55.78
51878;SHT31;37911;51.526;11.536;2023-08-08T14:25:41;20.06;56.26
51878;SHT31;37911;51.526;11.536;2023-08-08T14:28:45;19.65;58.13
51878;SHT31;37911;51.526;11.536;2023-08-08T14:31:51;19.44;59.67
51878;SHT31;37911;51.526;11.536;2023-08-08T14:34:55;19.62;59.30
51878;SHT31;37911;51.526;11.536;2023-08-08T14:37:58;19.93;58.75
51878;SHT31;37911;51.526;11.536;2023-08-08T14:41:02;20.06;57.59
51878;SHT31;37911;51.526;11.536;2023-08-08T14:44:05;20.13;58.21
51878;SHT31;37911;51.526;11.536;2023-08-08T14:47:11;20.26;57.81
51878;SHT31;37911;51.526;11.536;2023-08-08T14:50:16;20.41;57.05
51878;SHT31;37911;51.526;11.536;2023-08-08T14:53:20;20.45;56.89
51878;SHT31;37911;51.526;11.536;2023-08-08T14:56:23;20.43;56.60
51878;SHT31;37911;51.526;11.536;2023-08-08T14:59:27;20.14;57.44
51878;SHT31;37911;51.526;11.536;2023-08-08T15:02:33;19.90;58.75
51878;SHT31;37911;51.526;11.536;2023-08-08T15:05:36;19.85;58.39
51878;SHT31;37911;51.526;11.536;2023-08-08T15:08:42;19.87;59.20
51878;SHT31;37911;51.526;11.536;2023-08-08T15:11:45;19.93;59.20
51878;SHT31;37911;51.526;11.536;2023-08-08T15:14:49;19.97;59.20
51878;SHT31;37911;51.526;11.536;2023-08-08T15:17:55;19.87;59.14
51878;SHT31;37911;51.526;11.536;2023-08-08T15:20:58;19.78;59.26
51878;SHT31;37911;51.526;11.536;2023-08-08T15:24:02;19.79;58.54
51878;SHT31;37911;51.526;11.536;2023-08-08T15:27:05;19.70;59.07
51878;SHT31;37911;51.526;11.536;2023-08-08T15:30:10;19.39;58.98
51878;SHT31;37911;51.526;11.536;2023-08-08T15:33:16;19.41;58.88
51878;SHT31;37911;51.526;11.536;2023-08-08T15:36:19;19.25;59.36
51878;SHT31;37911;51.526;11.536;2023-08-08T15:39:23;19.12;59.54
51878;SHT31;37911;51.526;11.536;2023-08-08T15:42:27;19.24;59.57
51878;SHT31;37911;51.526;11.536;2023-08-08T15:45:30;19.08;60.29
51878;SHT31;37911;51.526;11.536;2023-08-08T15:48:36;19.15;60.86
51878;SHT31;37911;51.526;11.536;2023-08-08T15:51:40;19.25;60.33
51878;SHT31;37911;51.526;11.536;2023-08-08T15:54:44;19.21;60.23
51878;SHT31;37911;51.526;11.536;2023-08-08T15:57:47;19.31;59.94
51878;SHT31;37911;51.526;11.536;2023-08-08T16:00:51;19.39;59.80
51878;SHT31;37911;51.526;11.536;2023-08-08T16:03:58;19.45;58.71
51878;SHT31;37911;51.526;11.536;2023-08-08T16:07:02;19.28;59.69
51878;SHT31;37911;51.526;11.536;2023-08-08T16:10:06;19.01;60.24
51878;SHT31;37911;51.526;11.536;2023-08-08T16:13:10;18.80;60.86
51878;SHT31;37911;51.526;11.536;2023-08-08T16:16:14;18.98;61.26
51878;SHT31;37911;51.526;11.536;2023-08-08T16:19:20;18.98;61.40
51878;SHT31;37911;51.526;11.536;2023-08-08T16:22:25;18.83;61.22
51878;SHT31;37911;51.526;11.536;2023-08-08T16:25:28;18.64;61.53
51878;SHT31;37911;51.526;11.536;2023-08-08T16:28:32;18.49;61.61
51878;SHT31;37911;51.526;11.536;2023-08-08T16:31:36;18.56;62.18
51878;SHT31;37911;51.526;11.536;2023-08-08T16:34:42;18.67;61.74
51878;SHT31;37911;51.526;11.536;2023-08-08T16:37:46;18.77;61.35
51878;SHT31;37911;51.526;11.536;2023-08-08T16:40:49;18.67;61.24
51878;SHT31;37911;51.526;11.536;2023-08-08T16:44:00;18.61;61.08
51878;SHT31;37911;51.526;11.536;2023-08-08T16:47:05;18.43;61.69
51878;SHT31;37911;51.526;11.536;2023-08-08T16:50:11;18.29;62.42
51878;SHT31;37911;51.526;11.536;2023-08-08T16:53:14;18.09;62.68
51878;SHT31;37911;51.526;11.536;2023-08-08T16:56:18;17.99;63.55
51878;SHT31;37911;51.526;11.536;2023-08-08T16:59:21;17.92;63.50
51878;SHT31;37911;51.526;11.536;2023-08-08T17:02:25;17.93;63.42
51878;SHT31;37911;51.526;11.536;2023-08-08T17:05:31;17.98;63.37
51878;SHT31;37911;51.526;11.536;2023-08-08T17:08:34;18.14;62.97
51878;SHT31;37911;51.526;11.536;2023-08-08T17:11:38;18.33;62.85
51878;SHT31;37911;51.526;11.536;2023-08-08T17:14:41;18.37;62.70
51878;SHT31;37911;51.526;11.536;2023-08-08T17:17:46;18.44;62.33
51878;SHT31;37911;51.526;11.536;2023-08-08T17:20:52;18.47;62.28
51878;SHT31;37911;51.526;11.536;2023-08-08T17:23:56;18.50;62.24
51878;SHT31;37911;51.526;11.536;2023-08-08T17:27:00;18.42;62.21
51878;SHT31;37911;51.526;11.536;2023-08-08T17:30:04;18.34;62.14
51878;SHT31;37911;51.526;11.536;2023-08-08T17:33:10;18.26;62.31
51878;SHT31;37911;51.526;11.536;2023-08-08T17:36:17;18.22;62.06
51878;SHT31;37911;51.526;11.536;2023-08-08T17:39:20;18.21;61.39
51878;SHT31;37911;51.526;11.536;2023-08-08T17:42:24;18.06;61.35
51878;SHT31;37911;51.526;11.536;2023-08-08T17:45:27;17.99;61.61
51878;SHT31;37911;51.526;11.536;2023-08-08T17:48:31;17.89;62.06
51878;SHT31;37911;51.526;11.536;2023-08-08T17:51:37;17.81;62.23
51878;SHT31;37911;51.526;11.536;2023-08-08T17:54:40;17.78;61.99
51878;SHT31;37911;51.526;11.536;2023-08-08T17:57:43;17.68;62.33
51878;SHT31;37911;51.526;11.536;2023-08-08T18:00:47;17.65;62.00
51878;SHT31;37911;51.526;11.536;2023-08-08T18:03:50;17.58;62.47
51878;SHT31;37911;51.526;11.536;2023-08-08T18:06:58;17.61;63.16
51878;SHT31;37911;51.526;11.536;2023-08-08T18:10:01;17.57;62.78
51878;SHT31;37911;51.526;11.536;2023-08-08T18:13:05;17.55;62.37
51878;SHT31;37911;51.526;11.536;2023-08-08T18:16:08;17.44;62.31
51878;SHT31;37911;51.526;11.536;2023-08-08T18:19:13;17.34;62.41
51878;SHT31;37911;51.526;11.536;2023-08-08T18:22:21;17.35;62.60
51878;SHT31;37911;51.526;11.536;2023-08-08T18:25:25;17.32;62.64
51878;SHT31;37911;51.526;11.536;2023-08-08T18:28:28;17.24;62.78
51878;SHT31;37911;51.526;11.536;2023-08-08T18:31:35;17.18;63.26
51878;SHT31;37911;51.526;11.536;2023-08-08T18:34:38;17.16;63.44
51878;SHT31;37911;51.526;11.536;2023-08-08T18:37:44;17.08;64.09
51878;SHT31;37911;51.526;11.536;2023-08-08T18:40:48;17.06;64.49
51878;SHT31;37911;51.526;11.536;2023-08-08T18:43:53;17.04;64.36
51878;SHT31;37911;51.526;11.536;2023-08-08T18:46:57;17.03;64.23
51878;SHT31;37911;51.526;11.536;2023-08-08T18:50:00;16.94;65.20
51878;SHT31;37911;51.526;11.536;2023-08-08T18:53:06;16.90;65.61
51878;SHT31;37911;51.526;11.536;2023-08-08T18:56:11;16.87;65.37
51878;SHT31;37911;51.526;11.536;2023-08-08T18:59:14;16.79;65.59
51878;SHT31;37911;51.526;11.536;2023-08-08T19:02:18;16.77;65.88
51878;SHT31;37911;51.526;11.536;2023-08-08T19:05:21;16.76;65.73
51878;SHT31;37911;51.526;11.536;2023-08-08T19:08:27;16.67;66.03